Terminal Aerodrome Forecast
Issued by NWS

Home | Current Version | Previous Version | Text Only | Print | Product List | Glossary On
Versions: 1 2 3 4 5 6 7 8 9 10 11 12 13 14 15 16 17 18
840
FTUS42 KFFC 172320
TAFRYY
TAF
KRYY 172320Z 1800/1824 23005KT P6SM SCT040 SCT080 BKN250
     FM180200 24005KT P6SM SCT025 SCT060 BKN250
      TEMPO 1805/1809 SCT010 BKN025
     FM180900 29007KT 3SM BR OVC005
     FM181500 30007KT P6SM OVC008
     FM181700 31008KT P6SM BKN025 BKN040
     FM181900 31007KT P6SM BKN040
      AMD NOT SKED 1804/1812=

USA.gov is the U.S. government's official web portal to all federal, state and local government web resources and services.